Results by/Résultats par Info:[email protected] Phone: (613)260-0994


                                    K-TOWN TRIATHLON

                                Sunday August 3th, 2003

                         Confederation Park, Kingston, Ontario

                      Overall Team Results - Long Course Triathlon

  -----FINAL------ ----------------------- ------------------------ ----           2 km                      56.5 km                   15 km
                                           Category                       -------SWIM + T1------    ----------BIKE--------    -------RUN + T2-------   MINUS
    Pos      Time  Teamname                Plc/Total Category         #    Cat  Ovr  Time  /100m     Cat Ovr Time  km/hr      Cat  Ovr  Time    km     BRIDGE
  ------  -------- ----------------------- ------------------------ ----  ----------------------    ----------------------    ----------------------  --------
    1     2:45:10 Past Champions            1/21  Coed Relay        974  11    13   35:18  1:46    1      1 1:16:51  44.1     1      1   53:02  3:33         
    2     2:57:13 Chien Noir                2/21  Coed Relay        996  1      1   24:50  1:15    4      5 1:34:06  36.0     2      2   58:18  3:54         
    3     3:10:51 Tri-t-beat-s              3/21  Coed Relay        994  4      4   29:47  1:30    5      6 1:37:33  34.8     4      4 1:03:32  4:15         
    4     3:13:01 The Wedding Party         4/21  Coed Relay        992  8      9   31:50  1:36    3      4 1:34:05  36.0     8      8 1:07:07  4:29         
    5     3:18:05 Auscanaussie Kamakazies   5/21  Coed Relay        982  14    16   39:33  1:59    2      2 1:28:19  38.4     9      9 1:10:13  4:41         
    6     3:22:24 Team Andy #1              6/21  Coed Relay        984  2      2   26:00  1:18    10    11 1:41:46  33.3     10    11 1:14:39  4:59         
    7     3:25:41 Inky Squid                1/1   Men's Relay       978  1     11   32:55  1:39    1      3 1:31:25  37.1     1     20 1:21:22  5:26         
    8     3:27:28 Runner's Choice           7/21  Coed Relay        998  16    18   42:14  2:07    13    14 1:44:41  32.4     3      3 1:00:35  4:03         
    9     3:28:50 V. Y. S.                  8/21  Coed Relay        988  3      3   29:41  1:30    7      8 1:40:30  33.7     13    14 1:18:40  5:15         
   10     3:29:56 Team BLT                  9/21  Coed Relay        977  7      8   31:00  1:33    9     10 1:41:12  33.5     12    13 1:17:45  5:11         
   11     3:33:28 Repeaters                10/21  Coed Relay        990  5      5   29:49  1:30    15    16 1:48:03  31.4     11    12 1:15:37  5:03         
   12     3:35:15 The Barracudas           11/21  Coed Relay        997  9     10   31:56  1:36    12    13 1:42:44  33.0     16    18 1:20:36  5:23         
   13     3:35:25 Hawkes O'Conner          12/21  Coed Relay        986  6      6   30:06  1:31    11    12 1:42:21  33.1     18    21 1:22:58  5:32         
   14     3:38:29 Caron and Trent          13/21  Coed Relay        999  13    15   39:27  1:59    6      7 1:37:43  34.7     17    19 1:21:19  5:26         
   15     3:38:54 LJP                      14/21  Coed Relay        983  12    14   38:03  1:55    8      9 1:40:42  33.7     15    17 1:20:10  5:21         
   16     3:44:18 Team Extreme             15/21  Coed Relay        980  18    20   45:38  2:17    18    19 1:53:29  29.9     5      5 1:05:12  4:21         
   17     3:46:21 Die Tri-ing              16/21  Coed Relay        976  19    22   49:25  2:29    16    17 1:50:12  30.8     7      7 1:06:45  4:27         
   18     3:53:31 Emergency Services       17/21  Coed Relay        981  15    17   41:45  2:06    17    18 1:52:36  30.1     14    15 1:19:10  5:17         
   19     3:55:09 The Waltons              18/21  Coed Relay        975  10    12   32:59  1:39    14    15 1:45:51  32.0     20    25 1:36:20  6:26         
   20     4:09:13 Karin, Jennifer and Sar   1/4   Women's Relay     991  1      7   30:34  1:32    2     21 2:05:24  27.0     4     24 1:33:16  6:14         
   21     4:09:24 LeBaron O'Malley Tse      2/4   Women's Relay     987  3     24   51:07  2:34    1     20 2:05:05  27.1     1     10 1:13:14  4:53         
   22     4:12:03 Trois Pistoles           19/21  Coed Relay        995  21    26   53:40  2:41    21    24 2:13:56  25.3     6      6 1:06:14  4:25    1:46 
   23     4:31:17 Old Gals                  3/4   Women's Relay     979  4     25   51:55  2:36    3     25 2:19:16  24.3     2     16 1:20:07  5:21         
   24     4:31:37 Brdar Crawley Morris     20/21  Coed Relay        985  20    23   50:18  2:31    19    22 2:08:37  26.4     19    23 1:32:42  6:11         
   25     4:42:10 The Tri Harders          21/21  Coed Relay        989  17    19   44:50  2:15    20    23 2:11:08  25.9     21    26 1:46:12  7:05         
   26     5:03:04 Look Whose 40             4/4   Women's Relay     993  2     21   45:48  2:18    4     26 2:47:36  20.2     3     22 1:29:40  5:59